sensor_id;sensor_type;location;lat;lon;timestamp;temperature;humidity
32293;DHT22;43233;48.608;8.838;2023-04-01T00:01:48;7.50;98.80
32293;DHT22;43233;48.608;8.838;2023-04-01T00:04:14;7.40;98.70
32293;DHT22;43233;48.608;8.838;2023-04-01T00:06:40;7.40;99.20
32293;DHT22;43233;48.608;8.838;2023-04-01T00:09:06;7.50;99.40
32293;DHT22;43233;48.608;8.838;2023-04-01T00:11:32;7.50;98.80
32293;DHT22;43233;48.608;8.838;2023-04-01T00:13:58;7.40;98.00
32293;DHT22;43233;48.608;8.838;2023-04-01T00:16:24;7.40;98.10
32293;DHT22;43233;48.608;8.838;2023-04-01T00:18:50;7.40;98.50
32293;DHT22;43233;48.608;8.838;2023-04-01T00:21:17;7.40;98.40
32293;DHT22;43233;48.608;8.838;2023-04-01T00:23:43;7.40;98.40
32293;DHT22;43233;48.608;8.838;2023-04-01T00:26:09;7.40;99.10
32293;DHT22;43233;48.608;8.838;2023-04-01T00:28:35;7.30;98.80
32293;DHT22;43233;48.608;8.838;2023-04-01T00:31:09;7.40;99.30
32293;DHT22;43233;48.608;8.838;2023-04-01T00:33:35;7.40;98.80
32293;DHT22;43233;48.608;8.838;2023-04-01T00:36:10;7.40;98.80
32293;DHT22;43233;48.608;8.838;2023-04-01T00:38:37;7.30;99.30
32293;DHT22;43233;48.608;8.838;2023-04-01T00:41:03;7.30;99.50
32293;DHT22;43233;48.608;8.838;2023-04-01T00:43:30;7.30;99.80
32293;DHT22;43233;48.608;8.838;2023-04-01T00:45:56;7.30;99.90
32293;DHT22;43233;48.608;8.838;2023-04-01T00:48:31;7.30;99.90
32293;DHT22;43233;48.608;8.838;2023-04-01T00:51:09;7.30;99.90
32293;DHT22;43233;48.608;8.838;2023-04-01T00:53:44;7.20;99.80
32293;DHT22;43233;48.608;8.838;2023-04-01T00:56:14;7.20;98.80
32293;DHT22;43233;48.608;8.838;2023-04-01T00:58:44;7.30;99.40
32293;DHT22;43233;48.608;8.838;2023-04-01T01:01:11;7.30;98.60
32293;DHT22;43233;48.608;8.838;2023-04-01T01:03:36;7.30;99.00
32293;DHT22;43233;48.608;8.838;2023-04-01T01:15:31;7.10;99.90
32293;DHT22;43233;48.608;8.838;2023-04-01T01:29:41;7.00;99.90
32293;DHT22;43233;48.608;8.838;2023-04-01T01:37:36;7.00;99.90
32293;DHT22;43233;48.608;8.838;2023-04-01T01:40:05;6.90;99.90
32293;DHT22;43233;48.608;8.838;2023-04-01T01:42:33;6.90;99.90
32293;DHT22;43233;48.608;8.838;2023-04-01T01:45:03;6.90;99.90
32293;DHT22;43233;48.608;8.838;2023-04-01T01:47:29;6.90;99.90
32293;DHT22;43233;48.608;8.838;2023-04-01T01:49:55;6.90;99.90
32293;DHT22;43233;48.608;8.838;2023-04-01T01:52:23;7.00;99.90
32293;DHT22;43233;48.608;8.838;2023-04-01T01:54:51;6.90;99.70
32293;DHT22;43233;48.608;8.838;2023-04-01T01:57:20;6.90;99.90
32293;DHT22;43233;48.608;8.838;2023-04-01T01:59:49;6.90;99.40
32293;DHT22;43233;48.608;8.838;2023-04-01T02:02:16;6.90;99.90
32293;DHT22;43233;48.608;8.838;2023-04-01T02:04:43;6.90;99.40
32293;DHT22;43233;48.608;8.838;2023-04-01T02:07:36;6.90;99.10
32293;DHT22;43233;48.608;8.838;2023-04-01T02:10:03;6.80;98.10
32293;DHT22;43233;48.608;8.838;2023-04-01T02:12:29;6.80;98.10
32293;DHT22;43233;48.608;8.838;2023-04-01T02:15:09;6.80;98.10
32293;DHT22;43233;48.608;8.838;2023-04-01T02:17:38;6.90;97.50
32293;DHT22;43233;48.608;8.838;2023-04-01T02:20:06;6.90;96.80
32293;DHT22;43233;48.608;8.838;2023-04-01T02:22:37;6.90;96.50
32293;DHT22;43233;48.608;8.838;2023-04-01T02:25:10;6.90;96.60
32293;DHT22;43233;48.608;8.838;2023-04-01T02:27:38;6.90;97.00
32293;DHT22;43233;48.608;8.838;2023-04-01T02:30:05;6.90;97.10
32293;DHT22;43233;48.608;8.838;2023-04-01T02:32:33;6.90;96.50
32293;DHT22;43233;48.608;8.838;2023-04-01T02:35:00;7.00;96.40
32293;DHT22;43233;48.608;8.838;2023-04-01T02:37:31;7.00;95.80
32293;DHT22;43233;48.608;8.838;2023-04-01T02:40:00;7.00;95.10
32293;DHT22;43233;48.608;8.838;2023-04-01T02:42:26;6.90;96.20
32293;DHT22;43233;48.608;8.838;2023-04-01T02:44:51;6.90;96.20
32293;DHT22;43233;48.608;8.838;2023-04-01T02:47:17;6.90;95.80
32293;DHT22;43233;48.608;8.838;2023-04-01T02:49:43;7.00;95.70
32293;DHT22;43233;48.608;8.838;2023-04-01T02:52:08;6.90;95.30
32293;DHT22;43233;48.608;8.838;2023-04-01T02:54:34;6.90;94.50
32293;DHT22;43233;48.608;8.838;2023-04-01T02:56:59;6.90;95.00
32293;DHT22;43233;48.608;8.838;2023-04-01T02:59:25;6.90;94.90
32293;DHT22;43233;48.608;8.838;2023-04-01T03:01:51;6.90;93.60
32293;DHT22;43233;48.608;8.838;2023-04-01T03:04:17;6.80;94.00
32293;DHT22;43233;48.608;8.838;2023-04-01T03:06:42;6.70;95.10
32293;DHT22;43233;48.608;8.838;2023-04-01T03:09:08;6.70;94.70
32293;DHT22;43233;48.608;8.838;2023-04-01T03:11:34;6.70;94.90
32293;DHT22;43233;48.608;8.838;2023-04-01T03:14:00;6.60;95.40
32293;DHT22;43233;48.608;8.838;2023-04-01T03:16:26;6.60;95.60
32293;DHT22;43233;48.608;8.838;2023-04-01T03:18:52;6.60;95.40
32293;DHT22;43233;48.608;8.838;2023-04-01T03:21:20;6.70;95.70
32293;DHT22;43233;48.608;8.838;2023-04-01T03:23:46;6.60;95.10
32293;DHT22;43233;48.608;8.838;2023-04-01T03:26:12;6.70;95.60
32293;DHT22;43233;48.608;8.838;2023-04-01T03:28:38;6.60;95.10
32293;DHT22;43233;48.608;8.838;2023-04-01T03:31:04;6.60;95.30
32293;DHT22;43233;48.608;8.838;2023-04-01T03:33:31;6.60;94.70
32293;DHT22;43233;48.608;8.838;2023-04-01T03:35:56;6.60;94.60
32293;DHT22;43233;48.608;8.838;2023-04-01T03:38:22;6.60;94.40
32293;DHT22;43233;48.608;8.838;2023-04-01T03:40:48;6.60;95.10
32293;DHT22;43233;48.608;8.838;2023-04-01T03:43:13;6.60;95.90
32293;DHT22;43233;48.608;8.838;2023-04-01T03:45:49;6.60;95.50
32293;DHT22;43233;48.608;8.838;2023-04-01T03:48:15;6.50;96.40
32293;DHT22;43233;48.608;8.838;2023-04-01T03:50:42;6.50;96.80
32293;DHT22;43233;48.608;8.838;2023-04-01T03:53:08;6.50;97.30
32293;DHT22;43233;48.608;8.838;2023-04-01T03:55:35;6.50;98.00
32293;DHT22;43233;48.608;8.838;2023-04-01T03:58:00;6.50;97.80
32293;DHT22;43233;48.608;8.838;2023-04-01T04:00:28;6.50;97.30
32293;DHT22;43233;48.608;8.838;2023-04-01T04:02:54;6.50;96.80
32293;DHT22;43233;48.608;8.838;2023-04-01T04:05:25;6.60;96.00
32293;DHT22;43233;48.608;8.838;2023-04-01T04:07:51;6.60;95.80
32293;DHT22;43233;48.608;8.838;2023-04-01T04:10:17;6.60;96.10
32293;DHT22;43233;48.608;8.838;2023-04-01T04:12:43;6.60;95.50
32293;DHT22;43233;48.608;8.838;2023-04-01T04:15:09;6.60;95.30
32293;DHT22;43233;48.608;8.838;2023-04-01T04:17:35;6.60;94.90
32293;DHT22;43233;48.608;8.838;2023-04-01T04:20:01;6.70;94.90
32293;DHT22;43233;48.608;8.838;2023-04-01T04:22:26;6.80;94.40
32293;DHT22;43233;48.608;8.838;2023-04-01T04:24:52;6.70;94.10
32293;DHT22;43233;48.608;8.838;2023-04-01T04:27:18;6.70;94.40
32293;DHT22;43233;48.608;8.838;2023-04-01T04:29:43;6.70;94.90
32293;DHT22;43233;48.608;8.838;2023-04-01T04:32:09;6.60;94.50
32293;DHT22;43233;48.608;8.838;2023-04-01T04:34:35;6.60;94.40
32293;DHT22;43233;48.608;8.838;2023-04-01T04:37:00;6.60;94.50
32293;DHT22;43233;48.608;8.838;2023-04-01T04:39:26;6.70;93.80
32293;DHT22;43233;48.608;8.838;2023-04-01T04:41:52;6.80;93.80
32293;DHT22;43233;48.608;8.838;2023-04-01T04:44:17;6.80;94.90
32293;DHT22;43233;48.608;8.838;2023-04-01T04:46:43;6.80;95.30
32293;DHT22;43233;48.608;8.838;2023-04-01T04:49:08;6.90;95.80
32293;DHT22;43233;48.608;8.838;2023-04-01T04:51:34;6.80;96.20
32293;DHT22;43233;48.608;8.838;2023-04-01T04:54:02;6.80;95.60
32293;DHT22;43233;48.608;8.838;2023-04-01T04:56:28;6.80;96.00
32293;DHT22;43233;48.608;8.838;2023-04-01T04:58:54;6.80;96.40
32293;DHT22;43233;48.608;8.838;2023-04-01T05:01:20;6.80;96.00
32293;DHT22;43233;48.608;8.838;2023-04-01T05:03:46;6.90;95.70
32293;DHT22;43233;48.608;8.838;2023-04-01T05:06:16;6.90;94.70
32293;DHT22;43233;48.608;8.838;2023-04-01T05:08:44;6.90;94.70
32293;DHT22;43233;48.608;8.838;2023-04-01T05:11:13;7.00;94.90
32293;DHT22;43233;48.608;8.838;2023-04-01T05:13:39;7.00;94.60
32293;DHT22;43233;48.608;8.838;2023-04-01T05:16:10;7.00;92.70
32293;DHT22;43233;48.608;8.838;2023-04-01T05:18:36;7.00;92.50
32293;DHT22;43233;48.608;8.838;2023-04-01T05:21:01;7.10;91.80
32293;DHT22;43233;48.608;8.838;2023-04-01T05:23:27;7.20;91.30
32293;DHT22;43233;48.608;8.838;2023-04-01T05:25:52;7.10;91.50
32293;DHT22;43233;48.608;8.838;2023-04-01T05:28:19;7.00;91.70
32293;DHT22;43233;48.608;8.838;2023-04-01T05:30:45;6.90;91.90
32293;DHT22;43233;48.608;8.838;2023-04-01T05:33:12;6.90;91.60
32293;DHT22;43233;48.608;8.838;2023-04-01T05:35:39;6.90;91.90
32293;DHT22;43233;48.608;8.838;2023-04-01T05:38:05;7.00;91.60
32293;DHT22;43233;48.608;8.838;2023-04-01T05:40:31;6.90;91.50
32293;DHT22;43233;48.608;8.838;2023-04-01T05:42:57;7.00;91.80
32293;DHT22;43233;48.608;8.838;2023-04-01T05:45:23;7.10;91.20
32293;DHT22;43233;48.608;8.838;2023-04-01T05:47:49;7.00;91.40
32293;DHT22;43233;48.608;8.838;2023-04-01T05:50:14;7.00;90.50
32293;DHT22;43233;48.608;8.838;2023-04-01T05:52:40;7.00;91.00
32293;DHT22;43233;48.608;8.838;2023-04-01T05:55:06;7.00;90.70
32293;DHT22;43233;48.608;8.838;2023-04-01T05:57:32;7.10;90.10
32293;DHT22;43233;48.608;8.838;2023-04-01T05:59:58;7.10;90.50
32293;DHT22;43233;48.608;8.838;2023-04-01T06:02:24;7.10;90.70
32293;DHT22;43233;48.608;8.838;2023-04-01T06:05:00;7.10;91.10
32293;DHT22;43233;48.608;8.838;2023-04-01T06:07:27;7.20;90.60
32293;DHT22;43233;48.608;8.838;2023-04-01T06:09:54;7.20;90.30
32293;DHT22;43233;48.608;8.838;2023-04-01T06:20:56;7.00;92.50
32293;DHT22;43233;48.608;8.838;2023-04-01T06:23:45;7.00;93.70
32293;DHT22;43233;48.608;8.838;2023-04-01T06:26:37;7.00;93.70
32293;DHT22;43233;48.608;8.838;2023-04-01T06:29:08;7.10;93.90
32293;DHT22;43233;48.608;8.838;2023-04-01T06:54:27;7.00;96.30
32293;DHT22;43233;48.608;8.838;2023-04-01T06:56:58;7.10;96.50
32293;DHT22;43233;48.608;8.838;2023-04-01T06:59:31;7.00;96.60
32293;DHT22;43233;48.608;8.838;2023-04-01T07:02:11;7.00;96.40
32293;DHT22;43233;48.608;8.838;2023-04-01T07:04:45;7.10;98.40
32293;DHT22;43233;48.608;8.838;2023-04-01T07:07:45;7.10;96.80
32293;DHT22;43233;48.608;8.838;2023-04-01T07:10:25;7.10;97.00
32293;DHT22;43233;48.608;8.838;2023-04-01T07:12:56;7.10;97.00
32293;DHT22;43233;48.608;8.838;2023-04-01T07:15:28;7.20;96.80
32293;DHT22;43233;48.608;8.838;2023-04-01T07:18:21;7.10;97.10
32293;DHT22;43233;48.608;8.838;2023-04-01T07:20:43;7.10;96.90
32293;DHT22;43233;48.608;8.838;2023-04-01T07:23:26;7.20;96.70
32293;DHT22;43233;48.608;8.838;2023-04-01T07:25:56;7.20;97.30
32293;DHT22;43233;48.608;8.838;2023-04-01T07:28:24;7.20;98.00
32293;DHT22;43233;48.608;8.838;2023-04-01T07:30:55;7.20;96.80
32293;DHT22;43233;48.608;8.838;2023-04-01T07:33:42;7.10;97.60
32293;DHT22;43233;48.608;8.838;2023-04-01T07:36:42;7.20;98.90
32293;DHT22;43233;48.608;8.838;2023-04-01T07:41:57;7.20;99.00
32293;DHT22;43233;48.608;8.838;2023-04-01T07:58:13;7.30;99.90
32293;DHT22;43233;48.608;8.838;2023-04-01T08:08:30;7.20;99.90
32293;DHT22;43233;48.608;8.838;2023-04-01T08:16:46;7.20;99.90
32293;DHT22;43233;48.608;8.838;2023-04-01T08:22:16;7.30;99.90
32293;DHT22;43233;48.608;8.838;2023-04-01T08:24:46;7.20;99.90
32293;DHT22;43233;48.608;8.838;2023-04-01T08:30:02;7.20;99.10
32293;DHT22;43233;48.608;8.838;2023-04-01T08:32:36;7.20;99.90
32293;DHT22;43233;48.608;8.838;2023-04-01T08:35:28;7.20;99.90
32293;DHT22;43233;48.608;8.838;2023-04-01T08:38:06;7.20;99.80
32293;DHT22;43233;48.608;8.838;2023-04-01T08:51:42;7.20;99.90
32293;DHT22;43233;48.608;8.838;2023-04-01T09:00:25;7.20;99.90
32293;DHT22;43233;48.608;8.838;2023-04-01T09:06:17;7.30;99.90
32293;DHT22;43233;48.608;8.838;2023-04-01T09:09:17;7.40;99.90
32293;DHT22;43233;48.608;8.838;2023-04-01T09:22:41;7.30;99.70
32293;DHT22;43233;48.608;8.838;2023-04-01T09:35:46;7.40;99.90
32293;DHT22;43233;48.608;8.838;2023-04-01T09:38:30;7.50;99.90
32293;DHT22;43233;48.608;8.838;2023-04-01T09:41:29;7.60;99.40
32293;DHT22;43233;48.608;8.838;2023-04-01T09:46:51;7.60;97.70
32293;DHT22;43233;48.608;8.838;2023-04-01T09:49:43;7.50;99.40
32293;DHT22;43233;48.608;8.838;2023-04-01T09:52:42;7.50;98.20
32293;DHT22;43233;48.608;8.838;2023-04-01T10:14:47;7.40;96.00
32293;DHT22;43233;48.608;8.838;2023-04-01T10:20:40;7.50;96.60
32293;DHT22;43233;48.608;8.838;2023-04-01T10:36:38;7.70;95.50
32293;DHT22;43233;48.608;8.838;2023-04-01T10:53:47;8.10;94.50
32293;DHT22;43233;48.608;8.838;2023-04-01T10:56:39;8.20;96.70
32293;DHT22;43233;48.608;8.838;2023-04-01T11:28:28;8.30;92.50
32293;DHT22;43233;48.608;8.838;2023-04-01T11:33:29;8.40;92.50
32293;DHT22;43233;48.608;8.838;2023-04-01T11:41:43;8.60;91.60
32293;DHT22;43233;48.608;8.838;2023-04-01T11:52:24;8.70;93.40
32293;DHT22;43233;48.608;8.838;2023-04-01T11:57:49;8.70;94.50
32293;DHT22;43233;48.608;8.838;2023-04-01T12:00:30;8.70;94.20
32293;DHT22;43233;48.608;8.838;2023-04-01T12:17:01;9.20;92.00
32293;DHT22;43233;48.608;8.838;2023-04-01T12:25:27;8.90;90.20
32293;DHT22;43233;48.608;8.838;2023-04-01T12:30:49;8.80;87.30
32293;DHT22;43233;48.608;8.838;2023-04-01T12:45:00;8.90;93.70
32293;DHT22;43233;48.608;8.838;2023-04-01T12:53:01;9.20;90.90
32293;DHT22;43233;48.608;8.838;2023-04-01T12:55:43;9.30;89.30
32293;DHT22;43233;48.608;8.838;2023-04-01T13:15:04;8.90;91.10
32293;DHT22;43233;48.608;8.838;2023-04-01T13:23:00;9.00;90.30
32293;DHT22;43233;48.608;8.838;2023-04-01T13:33:50;9.00;91.70
32293;DHT22;43233;48.608;8.838;2023-04-01T13:42:23;8.90;88.60
32293;DHT22;43233;48.608;8.838;2023-04-01T13:47:29;9.00;89.60
32293;DHT22;43233;48.608;8.838;2023-04-01T13:50:23;8.90;89.70
32293;DHT22;43233;48.608;8.838;2023-04-01T13:53:05;8.90;89.50
32293;DHT22;43233;48.608;8.838;2023-04-01T14:03:43;9.30;87.30
32293;DHT22;43233;48.608;8.838;2023-04-01T14:06:35;9.20;86.50
32293;DHT22;43233;48.608;8.838;2023-04-01T14:23:46;9.00;85.40
32293;DHT22;43233;48.608;8.838;2023-04-01T14:26:33;9.10;87.60
32293;DHT22;43233;48.608;8.838;2023-04-01T14:40:33;9.00;91.20
32293;DHT22;43233;48.608;8.838;2023-04-01T14:51:28;9.00;85.30
32293;DHT22;43233;48.608;8.838;2023-04-01T14:57:10;9.00;87.50
32293;DHT22;43233;48.608;8.838;2023-04-01T14:59:40;8.90;87.40
32293;DHT22;43233;48.608;8.838;2023-04-01T15:04:58;9.00;86.90
32293;DHT22;43233;48.608;8.838;2023-04-01T15:07:48;9.00;86.90
32293;DHT22;43233;48.608;8.838;2023-04-01T15:10:33;9.00;86.70
32293;DHT22;43233;48.608;8.838;2023-04-01T15:13:26;9.00;87.10
32293;DHT22;43233;48.608;8.838;2023-04-01T15:18:54;9.20;86.70
32293;DHT22;43233;48.608;8.838;2023-04-01T15:24:22;9.20;86.70
32293;DHT22;43233;48.608;8.838;2023-04-01T15:27:10;9.00;87.90
32293;DHT22;43233;48.608;8.838;2023-04-01T15:29:50;9.00;88.80
32293;DHT22;43233;48.608;8.838;2023-04-01T15:32:42;9.00;87.40
32293;DHT22;43233;48.608;8.838;2023-04-01T15:49:07;8.90;91.70
32293;DHT22;43233;48.608;8.838;2023-04-01T16:11:23;8.80;91.50
32293;DHT22;43233;48.608;8.838;2023-04-01T16:16:48;9.10;91.70
32293;DHT22;43233;48.608;8.838;2023-04-01T16:22:44;9.40;87.40
32293;DHT22;43233;48.608;8.838;2023-04-01T16:25:29;9.40;85.80
32293;DHT22;43233;48.608;8.838;2023-04-01T16:28:11;9.40;85.80
32293;DHT22;43233;48.608;8.838;2023-04-01T16:30:43;9.40;85.10
32293;DHT22;43233;48.608;8.838;2023-04-01T16:33:38;9.40;85.20
32293;DHT22;43233;48.608;8.838;2023-04-01T16:36:33;9.30;85.40
32293;DHT22;43233;48.608;8.838;2023-04-01T16:41:42;9.30;85.40
32293;DHT22;43233;48.608;8.838;2023-04-01T16:44:23;9.30;85.40
32293;DHT22;43233;48.608;8.838;2023-04-01T16:47:12;9.30;86.40
32293;DHT22;43233;48.608;8.838;2023-04-01T16:49:53;9.30;86.00
32293;DHT22;43233;48.608;8.838;2023-04-01T16:55:55;9.40;85.90
32293;DHT22;43233;48.608;8.838;2023-04-01T17:01:53;9.40;86.50
32293;DHT22;43233;48.608;8.838;2023-04-01T17:15:21;9.40;84.60
32293;DHT22;43233;48.608;8.838;2023-04-01T17:17:55;9.40;85.10
32293;DHT22;43233;48.608;8.838;2023-04-01T17:20:29;9.40;85.50
32293;DHT22;43233;48.608;8.838;2023-04-01T17:28:51;9.30;85.40
32293;DHT22;43233;48.608;8.838;2023-04-01T17:34:21;9.10;86.20
32293;DHT22;43233;48.608;8.838;2023-04-01T17:42:17;9.00;87.70
32293;DHT22;43233;48.608;8.838;2023-04-01T17:44:48;9.00;87.40
32293;DHT22;43233;48.608;8.838;2023-04-01T17:47:46;9.10;87.00
32293;DHT22;43233;48.608;8.838;2023-04-01T17:56:04;8.90;88.80
32293;DHT22;43233;48.608;8.838;2023-04-01T18:17:18;7.80;97.80
32293;DHT22;43233;48.608;8.838;2023-04-01T18:23:00;7.60;96.00
32293;DHT22;43233;48.608;8.838;2023-04-01T18:25:42;7.60;93.70
32293;DHT22;43233;48.608;8.838;2023-04-01T18:31:05;7.50;97.40
32293;DHT22;43233;48.608;8.838;2023-04-01T18:33:48;7.40;95.60
32293;DHT22;43233;48.608;8.838;2023-04-01T18:36:50;7.40;96.80
32293;DHT22;43233;48.608;8.838;2023-04-01T18:39:22;7.40;97.20
32293;DHT22;43233;48.608;8.838;2023-04-01T18:42:03;7.30;94.40
32293;DHT22;43233;48.608;8.838;2023-04-01T18:53:41;7.30;96.00
32293;DHT22;43233;48.608;8.838;2023-04-01T18:56:30;7.20;96.20
32293;DHT22;43233;48.608;8.838;2023-04-01T18:59:06;7.20;96.40
32293;DHT22;43233;48.608;8.838;2023-04-01T19:04:29;7.10;96.50
32293;DHT22;43233;48.608;8.838;2023-04-01T19:07:02;7.10;96.50
32293;DHT22;43233;48.608;8.838;2023-04-01T19:09:32;7.10;96.60
32293;DHT22;43233;48.608;8.838;2023-04-01T19:12:34;7.00;96.10
32293;DHT22;43233;48.608;8.838;2023-04-01T19:20:52;6.80;98.00
32293;DHT22;43233;48.608;8.838;2023-04-01T19:24:06;6.80;98.00
32293;DHT22;43233;48.608;8.838;2023-04-01T19:43:33;6.70;99.80
32293;DHT22;43233;48.608;8.838;2023-04-01T19:51:34;6.70;99.30
32293;DHT22;43233;48.608;8.838;2023-04-01T19:56:42;6.60;99.50
32293;DHT22;43233;48.608;8.838;2023-04-01T19:59:16;6.60;99.60
32293;DHT22;43233;48.608;8.838;2023-04-01T20:04:29;6.50;99.90
32293;DHT22;43233;48.608;8.838;2023-04-01T20:07:09;6.50;99.90
32293;DHT22;43233;48.608;8.838;2023-04-01T20:12:52;6.70;99.90
32293;DHT22;43233;48.608;8.838;2023-04-01T20:15:34;6.80;99.90
32293;DHT22;43233;48.608;8.838;2023-04-01T20:18:03;6.80;99.90
32293;DHT22;43233;48.608;8.838;2023-04-01T20:20:31;6.90;99.90
32293;DHT22;43233;48.608;8.838;2023-04-01T20:25:45;6.90;99.90
32293;DHT22;43233;48.608;8.838;2023-04-01T20:47:22;6.80;99.90
32293;DHT22;43233;48.608;8.838;2023-04-01T20:56:04;6.90;99.90
32293;DHT22;43233;48.608;8.838;2023-04-01T20:59:05;6.90;99.90
32293;DHT22;43233;48.608;8.838;2023-04-01T21:01:54;6.90;99.90
32293;DHT22;43233;48.608;8.838;2023-04-01T21:04:33;7.00;99.90
32293;DHT22;43233;48.608;8.838;2023-04-01T21:10:29;7.00;99.40
32293;DHT22;43233;48.608;8.838;2023-04-01T21:16:04;6.90;99.90
32293;DHT22;43233;48.608;8.838;2023-04-01T21:21:42;6.80;97.80
32293;DHT22;43233;48.608;8.838;2023-04-01T21:33:29;6.90;98.90
32293;DHT22;43233;48.608;8.838;2023-04-01T21:35:52;6.80;97.30
32293;DHT22;43233;48.608;8.838;2023-04-01T21:41:17;6.70;98.60
32293;DHT22;43233;48.608;8.838;2023-04-01T21:49:44;6.60;98.20
32293;DHT22;43233;48.608;8.838;2023-04-01T21:52:39;6.60;97.90
32293;DHT22;43233;48.608;8.838;2023-04-01T21:58:02;6.60;97.80
32293;DHT22;43233;48.608;8.838;2023-04-01T22:00:38;6.50;98.30
32293;DHT22;43233;48.608;8.838;2023-04-01T22:06:00;6.40;98.20
32293;DHT22;43233;48.608;8.838;2023-04-01T22:17:00;6.30;98.40
32293;DHT22;43233;48.608;8.838;2023-04-01T22:25:26;6.20;99.10
32293;DHT22;43233;48.608;8.838;2023-04-01T22:28:00;6.20;98.80
32293;DHT22;43233;48.608;8.838;2023-04-01T22:30:31;6.30;98.30
32293;DHT22;43233;48.608;8.838;2023-04-01T22:33:12;6.40;98.10
32293;DHT22;43233;48.608;8.838;2023-04-01T22:43:34;6.30;97.90
32293;DHT22;43233;48.608;8.838;2023-04-01T22:46:23;6.30;97.70
32293;DHT22;43233;48.608;8.838;2023-04-01T23:02:37;6.40;96.90
32293;DHT22;43233;48.608;8.838;2023-04-01T23:05:09;6.50;96.20
32293;DHT22;43233;48.608;8.838;2023-04-01T23:13:22;6.50;95.10
32293;DHT22;43233;48.608;8.838;2023-04-01T23:15:51;6.40;95.00
32293;DHT22;43233;48.608;8.838;2023-04-01T23:18:25;6.40;95.60
32293;DHT22;43233;48.608;8.838;2023-04-01T23:26:39;6.30;96.20
32293;DHT22;43233;48.608;8.838;2023-04-01T23:29:14;6.30;96.00
32293;DHT22;43233;48.608;8.838;2023-04-01T23:31:42;6.30;95.80
32293;DHT22;43233;48.608;8.838;2023-04-01T23:36:52;6.30;96.00
32293;DHT22;43233;48.608;8.838;2023-04-01T23:39:46;6.30;95.80
32293;DHT22;43233;48.608;8.838;2023-04-01T23:42:19;6.30;95.40
32293;DHT22;43233;48.608;8.838;2023-04-01T23:44:46;6.30;95.20
32293;DHT22;43233;48.608;8.838;2023-04-01T23:47:20;6.30;95.50
32293;DHT22;43233;48.608;8.838;2023-04-01T23:52:31;6.30;96.20
32293;DHT22;43233;48.608;8.838;2023-04-01T23:55:25;6.30;95.90
